Luna, New Mexico
Current Conditions -  °F | °C
As of 4:55 PM on Saturday 22 Nov 2014 (Local Time) from KJTC Reporting Station
Clear Clear  
Wind Chill: 42°   Ceiling: Unl
Heat Index: 48°   Visibility: 10mi
Dew Point: 10°   Wind: 15mph
Humidity: 22%   Direction: 270°W
Pressure: 30.07"   Gusts: NA
Location:  33.82°N, 108.95°W
Report Text: KJTC 222355Z AUTO 27013KT 10SM CLR 09/M12 A3007 RMK AO2
Loading
Personal Weather Stations






























Interactive Weather Map New forecast layout! Learn more

10-Day Weather Forecast

Advertisements
Track Severe Weather on mobile